createdAt,value
2022-07-28T05:30:06.593Z,8.40
2022-07-28T05:32:33.367Z,8.52
2022-07-28T05:35:00.062Z,8.45
2022-07-28T05:37:26.783Z,8.30
2022-07-28T05:39:53.515Z,8.35
2022-07-28T05:42:20.227Z,8.30
2022-07-28T05:44:46.917Z,8.30
2022-07-28T05:47:13.620Z,8.40
2022-07-28T05:49:40.401Z,8.10
2022-07-28T05:52:07.267Z,8.40
2022-07-28T05:54:34.005Z,9.43
2022-07-28T05:57:10.308Z,8.88
2022-07-28T05:59:42.749Z,8.70
2022-07-28T06:02:13.212Z,8.40
2022-07-28T06:04:40.178Z,8.60
2022-07-28T06:07:06.989Z,8.50
2022-07-28T06:09:34.180Z,8.43
2022-07-28T06:12:00.992Z,8.23
2022-07-28T06:14:27.815Z,8.50
2022-07-28T06:16:54.726Z,8.38
2022-07-28T06:19:39.531Z,8.43
2022-07-28T06:22:12.104Z,8.40
2022-07-28T06:24:38.944Z,8.48
2022-07-28T06:27:05.953Z,8.75
2022-07-28T06:29:35.506Z,8.60
2022-07-28T06:32:02.340Z,8.60
2022-07-28T06:34:48.138Z,8.63
2022-07-28T06:37:14.961Z,8.70
2022-07-28T06:39:44.723Z,8.55
2022-07-28T06:42:29.164Z,8.60
2022-07-28T06:45:02.131Z,8.60
2022-07-28T06:47:39.511Z,8.70
2022-07-28T06:50:26.960Z,8.77
2022-07-28T06:55:49.997Z,8.40
2022-07-28T06:58:17.005Z,8.68
2022-07-28T07:00:45.536Z,8.60
2022-07-28T07:03:14.670Z,8.70
2022-07-28T07:05:41.508Z,8.43
2022-07-28T07:08:11.414Z,8.57
2022-07-28T07:10:41.239Z,8.68
2022-07-28T07:13:08.397Z,9.15
2022-07-28T07:15:35.416Z,8.60
2022-07-28T07:18:02.506Z,8.60
2022-07-28T07:20:29.305Z,8.70
2022-07-28T07:22:56.190Z,9.13
2022-07-28T07:25:22.936Z,8.60
2022-07-28T07:27:52.987Z,8.50
2022-07-28T07:30:23.507Z,8.77
2022-07-28T07:35:33.555Z,8.60
2022-07-28T07:38:00.363Z,8.70
2022-07-28T07:40:27.688Z,9.15
2022-07-28T07:42:57.716Z,8.90
2022-07-28T07:45:27.557Z,8.43
2022-07-28T07:48:02.166Z,8.52
2022-07-28T07:50:29.519Z,8.63
2022-07-28T07:52:56.690Z,8.63
2022-07-28T07:55:34.471Z,8.70
2022-07-28T07:58:13.557Z,8.50
2022-07-28T08:00:41.163Z,8.77
2022-07-28T08:03:30.758Z,8.30
2022-07-28T08:06:07.204Z,8.32
2022-07-28T08:08:43.842Z,8.63
2022-07-28T08:11:13.259Z,8.88
2022-07-28T08:13:40.499Z,8.93
2022-07-28T08:16:12.793Z,8.52
2022-07-28T08:18:40.124Z,8.45
2022-07-28T08:21:18.050Z,8.38
2022-07-28T08:24:03.951Z,8.88
2022-07-28T08:26:42.512Z,8.60
2022-07-28T08:29:12.155Z,8.70
2022-07-28T08:31:39.010Z,8.70
2022-07-28T08:34:31.511Z,8.50
2022-07-28T08:37:00.875Z,8.57
2022-07-28T08:39:36.027Z,9.00
2022-07-28T08:42:06.804Z,8.68
2022-07-28T08:44:55.063Z,8.77
2022-07-28T08:47:40.477Z,8.85
2022-07-28T08:50:26.753Z,8.63
2022-07-28T08:52:54.314Z,8.70
2022-07-28T08:55:32.494Z,8.60
2022-07-28T08:58:00.502Z,8.85
2022-07-28T09:00:27.924Z,8.98
2022-07-28T09:03:00.271Z,8.70
2022-07-28T09:05:34.197Z,8.80
2022-07-28T09:08:14.348Z,8.48
2022-07-28T09:10:41.402Z,8.70
2022-07-28T09:13:08.454Z,9.15
2022-07-28T09:15:37.594Z,8.77
2022-07-28T09:20:55.141Z,8.70
2022-07-28T09:23:43.178Z,8.50
2022-07-28T09:26:14.721Z,9.00
2022-07-28T09:31:56.974Z,9.07
2022-07-28T09:34:25.032Z,9.27
2022-07-28T09:37:00.631Z,8.60
2022-07-28T09:39:38.261Z,8.82
2022-07-28T09:42:05.306Z,8.80
2022-07-28T09:44:32.135Z,8.40
2022-07-28T09:46:59.118Z,9.15
2022-07-28T09:49:43.613Z,8.77
2022-07-28T09:52:11.667Z,9.13
2022-07-28T09:54:41.017Z,8.82
2022-07-28T09:57:20.807Z,9.40
2022-07-28T09:59:50.708Z,9.30
2022-07-28T10:02:33.470Z,9.52
2022-07-28T10:05:05.515Z,9.88
2022-07-28T10:07:49.595Z,9.52
2022-07-28T10:10:21.011Z,9.20
2022-07-28T10:13:06.344Z,9.27
2022-07-28T10:15:52.060Z,9.40
2022-07-28T10:18:18.992Z,9.18
2022-07-28T10:20:46.353Z,9.65
2022-07-28T10:23:17.473Z,9.15
2022-07-28T10:25:48.579Z,9.10
2022-07-28T10:28:27.633Z,9.40
2022-07-28T10:30:58.286Z,9.77
2022-07-28T10:33:31.995Z,9.18
2022-07-28T10:36:03.347Z,9.50
2022-07-28T10:38:37.153Z,9.10
2022-07-28T10:41:07.479Z,9.02
2022-07-28T10:43:42.646Z,9.10
2022-07-28T10:46:16.835Z,8.82
2022-07-28T10:48:44.820Z,8.80
2022-07-28T10:51:12.148Z,8.82
2022-07-28T10:53:47.114Z,9.85
2022-07-28T10:56:19.607Z,9.60
2022-07-28T10:59:09.639Z,9.57
2022-07-28T11:01:52.535Z,10.20
2022-07-28T11:04:41.172Z,9.25
2022-07-28T11:07:12.572Z,9.20
2022-07-28T11:09:39.594Z,9.40
2022-07-28T11:12:09.535Z,9.60
2022-07-28T11:14:39.067Z,9.20
2022-07-28T11:17:12.263Z,9.45
2022-07-28T11:22:34.923Z,9.82
2022-07-28T11:25:18.713Z,8.98
2022-07-28T11:27:50.560Z,9.57
2022-07-28T11:30:38.916Z,9.68
2022-07-28T11:33:09.483Z,9.57
2022-07-28T11:35:39.251Z,9.63
2022-07-28T11:38:05.980Z,9.60
2022-07-28T11:40:42.770Z,9.43
2022-07-28T11:43:31.355Z,9.80
2022-07-28T11:46:10.330Z,9.80
2022-07-28T11:48:45.007Z,9.40
2022-07-28T11:53:56.608Z,9.50
2022-07-28T11:56:27.355Z,10.32
2022-07-28T11:59:02.728Z,9.65
2022-07-28T12:01:31.938Z,9.52
2022-07-28T12:04:00.430Z,9.63
2022-07-28T12:06:40.202Z,10.00
2022-07-28T12:09:08.149Z,9.43
2022-07-28T12:11:38.038Z,10.10
2022-07-28T12:14:13.914Z,9.80
2022-07-28T12:16:47.164Z,10.05
2022-07-28T12:19:18.965Z,9.90
2022-07-28T12:21:55.222Z,9.60
2022-07-28T12:24:29.454Z,9.75
2022-07-28T12:27:06.299Z,9.65
2022-07-28T12:29:36.197Z,9.90
2022-07-28T12:32:09.732Z,9.20
2022-07-28T12:34:40.599Z,9.73
2022-07-28T12:37:12.397Z,9.88
2022-07-28T12:39:42.463Z,10.35
2022-07-28T12:42:11.786Z,9.98
2022-07-28T12:44:40.374Z,9.65
2022-07-28T12:47:11.968Z,9.98
2022-07-28T12:49:43.768Z,9.77
2022-07-28T12:52:22.282Z,9.95
2022-07-28T12:54:56.383Z,9.80
2022-07-28T12:57:49.867Z,9.93
2022-07-28T13:00:26.239Z,9.60
2022-07-28T13:02:56.299Z,9.50
2022-07-28T13:05:33.322Z,9.30
2022-07-28T13:10:49.393Z,9.93
2022-07-28T13:13:20.380Z,9.43
2022-07-28T13:16:10.846Z,10.15
2022-07-28T13:18:42.205Z,10.00
2022-07-28T13:21:09.680Z,9.73
2022-07-28T13:23:36.514Z,9.20
2022-07-28T13:26:04.136Z,9.85
2022-07-28T13:28:31.166Z,9.60
2022-07-28T13:31:02.139Z,9.90
2022-07-28T13:33:29.066Z,9.20
2022-07-28T13:35:56.083Z,9.50
2022-07-28T13:38:23.955Z,9.65
2022-07-28T13:40:56.154Z,10.63
2022-07-28T13:43:22.996Z,10.73
2022-07-28T13:45:49.812Z,10.10
2022-07-28T13:48:21.973Z,9.52
2022-07-28T13:50:48.698Z,9.82
2022-07-28T13:53:16.228Z,9.90
2022-07-28T13:55:43.172Z,10.30
2022-07-28T13:58:10.209Z,9.80
2022-07-28T14:00:46.532Z,9.85
2022-07-28T14:03:13.564Z,9.25
2022-07-28T14:05:40.612Z,9.98
2022-07-28T14:08:13.642Z,9.95
2022-07-28T14:10:43.485Z,10.05
2022-07-28T14:13:16.915Z,9.70
2022-07-28T14:15:45.837Z,9.75
2022-07-28T14:18:13.572Z,10.32
2022-07-28T14:20:40.422Z,9.63
2022-07-28T14:23:07.516Z,10.02
2022-07-28T14:25:48.812Z,9.80
2022-07-28T14:28:16.560Z,10.00
2022-07-28T14:30:43.258Z,9.70
2022-07-28T14:33:10.072Z,9.65
2022-07-28T14:35:36.779Z,9.93
2022-07-28T14:38:42.379Z,10.00
2022-07-28T14:40:52.726Z,9.90
2022-07-28T14:43:28.898Z,10.10
2022-07-28T14:46:13.336Z,9.90
2022-07-28T14:48:43.482Z,10.60
2022-07-28T14:51:16.052Z,10.15
2022-07-28T14:53:49.873Z,9.73
2022-07-28T14:56:18.757Z,10.50
2022-07-28T14:58:45.642Z,10.10
2022-07-28T15:01:12.506Z,9.98
2022-07-28T15:03:48.404Z,9.82
2022-07-28T15:06:15.141Z,9.43
2022-07-28T15:08:41.911Z,10.13
2022-07-28T15:11:08.904Z,9.70
2022-07-28T15:13:35.661Z,10.00
2022-07-28T15:16:02.479Z,9.52
2022-07-28T15:18:29.358Z,9.30
2022-07-28T15:21:01.362Z,9.55
2022-07-28T15:23:28.585Z,9.75
2022-07-28T15:25:56.201Z,9.65
2022-07-28T15:28:28.782Z,10.10
2022-07-28T15:30:56.199Z,9.80
2022-07-28T15:33:25.423Z,9.75
2022-07-28T15:35:58.586Z,9.68
2022-07-28T15:38:31.601Z,9.52
2022-07-28T15:40:58.882Z,9.57
2022-07-28T15:43:26.064Z,9.23
2022-07-28T15:45:55.511Z,9.35
2022-07-28T15:48:23.090Z,9.20
2022-07-28T15:51:02.528Z,9.38
2022-07-28T15:53:29.422Z,9.27
2022-07-28T15:55:56.210Z,9.05
2022-07-28T16:27:58.020Z,9.40
2022-07-28T16:30:26.921Z,9.15
2022-07-28T16:32:54.831Z,9.20
2022-07-28T16:35:21.622Z,8.93
2022-07-28T16:37:48.572Z,9.10
2022-07-28T16:40:17.755Z,9.07
2022-07-28T16:42:44.445Z,9.48
2022-07-28T16:45:11.553Z,9.07
2022-07-28T16:47:38.232Z,9.10
2022-07-28T16:50:05.144Z,9.00
2022-07-28T16:52:35.159Z,9.05
2022-07-28T16:55:01.830Z,9.55
2022-07-28T16:57:28.497Z,9.63
2022-07-28T16:59:55.205Z,9.20
2022-07-28T17:02:22.029Z,9.63
2022-07-28T17:04:48.960Z,9.68
2022-07-28T17:07:15.786Z,9.63
2022-07-28T17:09:42.617Z,9.18
2022-07-28T17:12:09.497Z,9.40
2022-07-28T17:14:36.377Z,9.00
2022-07-28T17:17:03.322Z,9.40
2022-07-28T17:19:32.854Z,9.35
2022-07-28T17:22:01.120Z,8.93
2022-07-28T17:24:28.123Z,9.55
2022-07-28T17:29:42.587Z,9.20
2022-07-28T17:32:09.530Z,9.15
2022-07-28T17:34:37.488Z,9.80
2022-07-28T17:37:05.416Z,9.82
2022-07-28T17:39:32.179Z,9.50
2022-07-28T17:41:58.928Z,9.52
2022-07-28T17:44:25.621Z,9.30
2022-07-28T17:46:52.428Z,9.55
2022-07-28T17:49:19.724Z,9.27
2022-07-28T17:51:47.559Z,9.63
2022-07-28T17:54:15.854Z,9.40
2022-07-28T17:56:42.904Z,9.60
2022-07-28T17:59:10.428Z,9.73
2022-07-28T18:01:38.297Z,9.35
2022-07-28T18:04:09.626Z,9.30
2022-07-28T18:06:38.333Z,9.43
2022-07-28T18:09:08.341Z,9.43
2022-07-28T18:11:57.854Z,9.40
2022-07-28T18:14:30.489Z,9.40
2022-07-28T18:16:58.486Z,9.23
2022-07-28T18:19:26.832Z,9.20
2022-07-28T18:21:56.202Z,9.48
2022-07-28T18:24:23.221Z,9.30
2022-07-28T18:26:51.851Z,9.40
2022-07-28T18:29:20.405Z,9.23
2022-07-28T18:31:48.658Z,9.40
2022-07-28T18:34:15.872Z,9.38
2022-07-28T18:36:43.450Z,9.48
2022-07-28T18:39:10.365Z,9.48
2022-07-28T18:41:47.431Z,9.98
2022-07-28T18:44:19.525Z,9.60
2022-07-28T18:46:47.578Z,9.60
2022-07-28T18:49:14.801Z,9.38
2022-07-28T18:51:44.283Z,9.10
2022-07-28T18:54:14.222Z,9.18
2022-07-28T18:56:41.321Z,9.15
2022-07-28T18:59:08.029Z,9.10
2022-07-28T19:01:34.931Z,9.10
2022-07-28T19:04:01.688Z,9.00
2022-07-28T19:06:29.315Z,9.30
2022-07-28T19:08:56.420Z,9.27
2022-07-28T19:11:23.186Z,9.57
2022-07-28T19:13:49.994Z,9.15
2022-07-28T19:16:16.845Z,9.07
2022-07-28T19:18:43.712Z,9.55
2022-07-28T19:21:10.819Z,9.20
2022-07-28T19:23:37.784Z,9.57
2022-07-28T19:26:04.941Z,9.98
2022-07-28T19:28:31.913Z,9.65
2022-07-28T19:30:59.966Z,9.30
2022-07-28T19:33:36.921Z,9.57
2022-07-28T19:36:10.887Z,9.70
2022-07-28T19:38:37.950Z,9.60
2022-07-28T19:41:04.850Z,9.52
2022-07-28T19:43:31.718Z,9.35
2022-07-28T19:46:00.329Z,9.38
2022-07-28T19:48:27.655Z,9.40
2022-07-28T19:50:54.926Z,9.60
2022-07-28T19:53:32.182Z,9.70
2022-07-28T19:56:01.359Z,9.50
2022-07-28T19:58:28.907Z,9.60
2022-07-28T20:00:56.564Z,9.40
2022-07-28T20:04:01.186Z,9.05
2022-07-28T20:06:11.627Z,9.35
2022-07-28T20:08:38.776Z,9.10
2022-07-28T20:11:05.632Z,9.23
2022-07-28T20:13:32.510Z,9.25
2022-07-28T20:15:59.369Z,9.05
2022-07-28T20:18:26.118Z,10.10
2022-07-28T20:20:52.866Z,14.30
2022-07-28T20:23:19.640Z,13.00
2022-07-28T20:25:46.823Z,13.50
2022-07-28T20:28:13.646Z,11.90
2022-07-28T20:30:40.675Z,10.30
2022-07-28T20:33:08.201Z,9.45
2022-07-28T20:35:35.152Z,9.70
2022-07-28T20:38:03.389Z,10.13
2022-07-28T20:40:30.230Z,10.77
2022-07-28T20:42:57.016Z,10.02
2022-07-28T20:45:23.899Z,10.20
2022-07-28T20:47:50.734Z,9.48
2022-07-28T20:50:17.741Z,9.60
2022-07-28T20:52:44.415Z,9.48
2022-07-28T20:55:11.481Z,10.20
2022-07-28T20:57:38.658Z,10.75
2022-07-28T21:00:06.433Z,10.40
2022-07-28T21:02:33.264Z,10.05
2022-07-28T21:05:00.279Z,10.65
2022-07-28T21:08:00.719Z,9.40
2022-07-28T21:10:14.034Z,9.80
2022-07-28T21:12:40.882Z,9.27
2022-07-28T21:15:08.801Z,9.88
2022-07-28T21:17:36.005Z,9.98
2022-07-28T21:20:04.157Z,9.60
2022-07-28T21:22:31.009Z,9.70
2022-07-28T21:24:59.106Z,9.40
2022-07-28T21:27:25.796Z,9.70
2022-07-28T21:32:19.079Z,9.35
2022-07-28T21:34:45.848Z,9.40
2022-07-28T21:37:13.117Z,9.27
2022-07-28T21:39:40.274Z,9.55
2022-07-28T21:42:08.911Z,9.50
2022-07-28T21:44:37.361Z,9.50
2022-07-28T21:47:04.671Z,9.38
2022-07-28T21:49:32.344Z,9.82
2022-07-28T21:51:59.607Z,9.30
2022-07-28T21:54:26.547Z,10.32
2022-07-28T21:56:53.352Z,9.65
2022-07-28T21:59:20.158Z,9.35
2022-07-28T22:01:47.777Z,9.00
2022-07-28T22:04:15.079Z,9.02
2022-07-28T22:06:46.574Z,8.90
2022-07-28T22:09:14.630Z,9.15
2022-07-28T22:11:41.570Z,9.30
2022-07-28T22:14:08.411Z,9.10
2022-07-28T22:16:35.300Z,9.30
2022-07-28T22:19:02.169Z,9.20
2022-07-28T22:21:28.988Z,9.15
2022-07-28T22:23:56.011Z,9.25
2022-07-28T22:26:22.823Z,9.70
2022-07-28T22:28:49.514Z,9.32
2022-07-28T22:31:17.168Z,9.13
2022-07-28T22:33:43.950Z,8.93
2022-07-28T22:36:10.730Z,9.32
2022-07-28T22:38:38.713Z,9.38
2022-07-28T22:41:05.528Z,9.20
2022-07-28T22:43:33.910Z,9.27
2022-07-28T22:46:00.959Z,9.30
2022-07-28T22:48:28.434Z,9.18
2022-07-28T22:50:55.451Z,9.20
2022-07-28T22:53:22.273Z,9.50
2022-07-28T22:55:49.027Z,9.15
2022-07-28T22:58:15.767Z,9.32
2022-07-28T23:00:42.835Z,9.30
2022-07-28T23:03:12.946Z,9.27
2022-07-28T23:05:40.564Z,9.23
2022-07-28T23:08:07.451Z,8.93
2022-07-28T23:10:34.879Z,9.25
2022-07-28T23:13:01.777Z,9.45
2022-07-28T23:15:39.766Z,9.70
2022-07-28T23:18:13.779Z,9.52
2022-07-28T23:20:42.031Z,9.48
2022-07-28T23:23:09.759Z,9.50
2022-07-28T23:25:39.518Z,9.80
2022-07-28T23:28:07.405Z,9.00
2022-07-28T23:30:34.355Z,9.27
2022-07-28T23:33:01.533Z,8.95
2022-07-28T23:35:28.491Z,9.15
2022-07-28T23:37:55.409Z,9.20
2022-07-28T23:40:22.310Z,8.80
2022-07-28T23:42:49.217Z,9.57
2022-07-28T23:45:16.035Z,9.23
2022-07-28T23:47:43.068Z,9.20
2022-07-28T23:50:10.188Z,9.50
2022-07-28T23:52:36.895Z,9.07
2022-07-28T23:55:04.206Z,9.15
2022-07-28T23:57:31.570Z,9.20
2022-07-28T23:59:59.998Z,9.20
